sensor_id;sensor_type;location;lat;lon;timestamp;temperature;humidity
55771;DHT22;41687;-33.234;-60.334;2022-08-03T00:01:56;13.40;83.90
55771;DHT22;41687;-33.234;-60.334;2022-08-03T00:04:24;13.40;84.20
55771;DHT22;41687;-33.234;-60.334;2022-08-03T00:06:51;13.40;84.20
55771;DHT22;41687;-33.234;-60.334;2022-08-03T00:09:19;13.40;84.50
55771;DHT22;41687;-33.234;-60.334;2022-08-03T00:11:47;13.30;84.70
55771;DHT22;41687;-33.234;-60.334;2022-08-03T00:14:15;13.30;84.40
55771;DHT22;41687;-33.234;-60.334;2022-08-03T00:16:42;13.30;84.60
55771;DHT22;41687;-33.234;-60.334;2022-08-03T00:19:11;13.30;84.70
55771;DHT22;41687;-33.234;-60.334;2022-08-03T00:21:38;13.30;85.00
55771;DHT22;41687;-33.234;-60.334;2022-08-03T00:24:06;13.30;85.10
55771;DHT22;41687;-33.234;-60.334;2022-08-03T00:26:34;13.30;85.30
55771;DHT22;41687;-33.234;-60.334;2022-08-03T00:29:02;13.20;85.50
55771;DHT22;41687;-33.234;-60.334;2022-08-03T00:31:30;13.20;85.70
55771;DHT22;41687;-33.234;-60.334;2022-08-03T00:33:58;13.20;86.40
55771;DHT22;41687;-33.234;-60.334;2022-08-03T00:36:26;13.20;86.70
55771;DHT22;41687;-33.234;-60.334;2022-08-03T00:38:55;13.20;86.70
55771;DHT22;41687;-33.234;-60.334;2022-08-03T00:41:22;13.20;86.60
55771;DHT22;41687;-33.234;-60.334;2022-08-03T00:43:50;13.20;87.30
55771;DHT22;41687;-33.234;-60.334;2022-08-03T00:46:18;13.20;87.40
55771;DHT22;41687;-33.234;-60.334;2022-08-03T00:48:49;13.20;87.50
55771;DHT22;41687;-33.234;-60.334;2022-08-03T00:51:18;13.20;87.30
55771;DHT22;41687;-33.234;-60.334;2022-08-03T00:53:47;13.20;88.60
55771;DHT22;41687;-33.234;-60.334;2022-08-03T00:56:16;13.20;88.60
55771;DHT22;41687;-33.234;-60.334;2022-08-03T00:58:45;13.20;89.20
55771;DHT22;41687;-33.234;-60.334;2022-08-03T01:01:13;13.20;88.50
55771;DHT22;41687;-33.234;-60.334;2022-08-03T01:03:41;13.10;88.90
55771;DHT22;41687;-33.234;-60.334;2022-08-03T01:06:33;13.20;89.10
55771;DHT22;41687;-33.234;-60.334;2022-08-03T01:09:35;13.20;90.00
55771;DHT22;41687;-33.234;-60.334;2022-08-03T01:15:02;13.10;89.60
55771;DHT22;41687;-33.234;-60.334;2022-08-03T01:20:36;13.10;89.60
55771;DHT22;41687;-33.234;-60.334;2022-08-03T01:31:42;13.10;90.40
55771;DHT22;41687;-33.234;-60.334;2022-08-03T01:34:14;13.10;90.20
55771;DHT22;41687;-33.234;-60.334;2022-08-03T01:36:49;13.00;90.20
55771;DHT22;41687;-33.234;-60.334;2022-08-03T01:39:20;13.10;90.30
55771;DHT22;41687;-33.234;-60.334;2022-08-03T01:41:55;13.00;90.20
55771;DHT22;41687;-33.234;-60.334;2022-08-03T01:44:32;13.00;90.40
55771;DHT22;41687;-33.234;-60.334;2022-08-03T01:47:02;12.90;90.10
55771;DHT22;41687;-33.234;-60.334;2022-08-03T01:49:39;12.70;86.90
55771;DHT22;41687;-33.234;-60.334;2022-08-03T01:52:11;12.50;85.30
55771;DHT22;41687;-33.234;-60.334;2022-08-03T01:54:44;12.30;85.90
55771;DHT22;41687;-33.234;-60.334;2022-08-03T01:57:14;12.10;85.70
55771;DHT22;41687;-33.234;-60.334;2022-08-03T01:59:42;12.00;86.10
55771;DHT22;41687;-33.234;-60.334;2022-08-03T02:02:13;11.80;86.30
55771;DHT22;41687;-33.234;-60.334;2022-08-03T02:04:43;11.70;86.70
55771;DHT22;41687;-33.234;-60.334;2022-08-03T02:07:13;11.60;87.00
55771;DHT22;41687;-33.234;-60.334;2022-08-03T02:09:45;11.60;87.10
55771;DHT22;41687;-33.234;-60.334;2022-08-03T02:12:15;11.60;87.50
55771;DHT22;41687;-33.234;-60.334;2022-08-03T02:14:45;11.50;87.70
55771;DHT22;41687;-33.234;-60.334;2022-08-03T02:17:14;11.40;87.10
55771;DHT22;41687;-33.234;-60.334;2022-08-03T02:19:43;11.40;87.20
55771;DHT22;41687;-33.234;-60.334;2022-08-03T02:22:13;11.40;86.90
55771;DHT22;41687;-33.234;-60.334;2022-08-03T02:24:41;11.30;87.10
55771;DHT22;41687;-33.234;-60.334;2022-08-03T02:27:10;11.30;86.90
55771;DHT22;41687;-33.234;-60.334;2022-08-03T02:29:39;11.20;86.60
55771;DHT22;41687;-33.234;-60.334;2022-08-03T02:32:11;11.20;86.80
55771;DHT22;41687;-33.234;-60.334;2022-08-03T02:34:42;11.20;86.90
55771;DHT22;41687;-33.234;-60.334;2022-08-03T02:37:13;11.20;87.00
55771;DHT22;41687;-33.234;-60.334;2022-08-03T02:39:42;11.20;87.00
55771;DHT22;41687;-33.234;-60.334;2022-08-03T02:42:11;11.20;86.80
55771;DHT22;41687;-33.234;-60.334;2022-08-03T02:44:41;11.30;86.40
55771;DHT22;41687;-33.234;-60.334;2022-08-03T02:47:14;11.20;86.70
55771;DHT22;41687;-33.234;-60.334;2022-08-03T02:49:43;11.20;87.20
55771;DHT22;41687;-33.234;-60.334;2022-08-03T02:52:14;11.10;86.70
55771;DHT22;41687;-33.234;-60.334;2022-08-03T02:54:44;11.10;86.90
55771;DHT22;41687;-33.234;-60.334;2022-08-03T02:57:13;11.00;87.10
55771;DHT22;41687;-33.234;-60.334;2022-08-03T02:59:43;11.00;86.90
55771;DHT22;41687;-33.234;-60.334;2022-08-03T03:02:12;11.10;87.00
55771;DHT22;41687;-33.234;-60.334;2022-08-03T03:04:42;11.10;86.80
55771;DHT22;41687;-33.234;-60.334;2022-08-03T03:07:14;11.00;86.80
55771;DHT22;41687;-33.234;-60.334;2022-08-03T03:09:42;11.00;86.90
55771;DHT22;41687;-33.234;-60.334;2022-08-03T03:12:12;11.00;87.00
55771;DHT22;41687;-33.234;-60.334;2022-08-03T03:14:40;11.00;86.50
55771;DHT22;41687;-33.234;-60.334;2022-08-03T03:17:55;11.00;86.40
55771;DHT22;41687;-33.234;-60.334;2022-08-03T03:20:23;10.90;86.80
55771;DHT22;41687;-33.234;-60.334;2022-08-03T03:22:52;10.90;87.20
55771;DHT22;41687;-33.234;-60.334;2022-08-03T03:25:20;10.90;87.50
55771;DHT22;41687;-33.234;-60.334;2022-08-03T03:27:49;10.90;87.60
55771;DHT22;41687;-33.234;-60.334;2022-08-03T03:30:18;10.90;87.10
55771;DHT22;41687;-33.234;-60.334;2022-08-03T03:32:45;10.90;87.30
55771;DHT22;41687;-33.234;-60.334;2022-08-03T03:35:13;10.90;87.20
55771;DHT22;41687;-33.234;-60.334;2022-08-03T03:37:42;10.90;87.20
55771;DHT22;41687;-33.234;-60.334;2022-08-03T03:40:11;10.90;87.10
55771;DHT22;41687;-33.234;-60.334;2022-08-03T03:42:39;10.90;87.10
55771;DHT22;41687;-33.234;-60.334;2022-08-03T03:45:08;10.90;87.10
55771;DHT22;41687;-33.234;-60.334;2022-08-03T03:47:36;10.90;87.30
55771;DHT22;41687;-33.234;-60.334;2022-08-03T03:50:05;10.90;87.60
55771;DHT22;41687;-33.234;-60.334;2022-08-03T03:52:33;10.90;88.10
55771;DHT22;41687;-33.234;-60.334;2022-08-03T03:55:02;10.90;88.50
55771;DHT22;41687;-33.234;-60.334;2022-08-03T03:57:30;11.00;88.20
55771;DHT22;41687;-33.234;-60.334;2022-08-03T03:59:58;11.00;87.50
55771;DHT22;41687;-33.234;-60.334;2022-08-03T04:02:25;11.00;87.10
55771;DHT22;41687;-33.234;-60.334;2022-08-03T04:04:53;11.00;87.10
55771;DHT22;41687;-33.234;-60.334;2022-08-03T04:08:06;11.00;86.70
55771;DHT22;41687;-33.234;-60.334;2022-08-03T04:11:29;11.00;86.00
55771;DHT22;41687;-33.234;-60.334;2022-08-03T04:14:34;10.80;86.00
55771;DHT22;41687;-33.234;-60.334;2022-08-03T04:17:08;10.80;86.10
55771;DHT22;41687;-33.234;-60.334;2022-08-03T04:19:42;10.60;86.20
55771;DHT22;41687;-33.234;-60.334;2022-08-03T04:22:15;10.60;86.40
55771;DHT22;41687;-33.234;-60.334;2022-08-03T04:24:54;10.50;86.60
55771;DHT22;41687;-33.234;-60.334;2022-08-03T04:27:26;10.50;86.50
55771;DHT22;41687;-33.234;-60.334;2022-08-03T04:29:56;10.40;86.90
55771;DHT22;41687;-33.234;-60.334;2022-08-03T04:32:26;10.40;86.70
55771;DHT22;41687;-33.234;-60.334;2022-08-03T04:34:54;10.40;86.50
55771;DHT22;41687;-33.234;-60.334;2022-08-03T04:37:42;10.40;86.50
55771;DHT22;41687;-33.234;-60.334;2022-08-03T04:40:19;10.40;85.50
55771;DHT22;41687;-33.234;-60.334;2022-08-03T04:42:49;10.30;85.70
55771;DHT22;41687;-33.234;-60.334;2022-08-03T04:45:19;10.30;86.00
55771;DHT22;41687;-33.234;-60.334;2022-08-03T04:47:48;10.30;85.40
55771;DHT22;41687;-33.234;-60.334;2022-08-03T04:50:16;10.30;85.50
55771;DHT22;41687;-33.234;-60.334;2022-08-03T04:53:04;10.20;85.80
55771;DHT22;41687;-33.234;-60.334;2022-08-03T04:55:33;10.20;85.70
55771;DHT22;41687;-33.234;-60.334;2022-08-03T04:58:02;10.30;85.60
55771;DHT22;41687;-33.234;-60.334;2022-08-03T05:00:30;10.30;85.20
55771;DHT22;41687;-33.234;-60.334;2022-08-03T05:02:58;10.20;84.90
55771;DHT22;41687;-33.234;-60.334;2022-08-03T05:05:26;10.20;84.90
55771;DHT22;41687;-33.234;-60.334;2022-08-03T05:07:54;10.20;85.20
55771;DHT22;41687;-33.234;-60.334;2022-08-03T05:10:22;10.10;85.30
55771;DHT22;41687;-33.234;-60.334;2022-08-03T05:12:49;10.10;85.00
55771;DHT22;41687;-33.234;-60.334;2022-08-03T05:15:18;10.10;85.30
55771;DHT22;41687;-33.234;-60.334;2022-08-03T05:17:46;10.10;85.40
55771;DHT22;41687;-33.234;-60.334;2022-08-03T05:20:15;10.00;85.80
55771;DHT22;41687;-33.234;-60.334;2022-08-03T05:22:42;10.00;86.00
55771;DHT22;41687;-33.234;-60.334;2022-08-03T05:25:10;10.10;86.10
55771;DHT22;41687;-33.234;-60.334;2022-08-03T05:27:38;10.10;85.90
55771;DHT22;41687;-33.234;-60.334;2022-08-03T05:30:06;10.10;86.00
55771;DHT22;41687;-33.234;-60.334;2022-08-03T05:32:34;10.00;86.50
55771;DHT22;41687;-33.234;-60.334;2022-08-03T05:35:02;10.10;87.10
55771;DHT22;41687;-33.234;-60.334;2022-08-03T05:37:30;10.20;86.50
55771;DHT22;41687;-33.234;-60.334;2022-08-03T05:39:58;10.20;86.80
55771;DHT22;41687;-33.234;-60.334;2022-08-03T05:42:26;10.30;87.10
55771;DHT22;41687;-33.234;-60.334;2022-08-03T05:44:54;10.20;87.80
55771;DHT22;41687;-33.234;-60.334;2022-08-03T05:47:22;10.20;88.60
55771;DHT22;41687;-33.234;-60.334;2022-08-03T05:49:50;10.20;89.00
55771;DHT22;41687;-33.234;-60.334;2022-08-03T05:52:17;10.20;88.90
55771;DHT22;41687;-33.234;-60.334;2022-08-03T05:54:45;10.20;89.40
55771;DHT22;41687;-33.234;-60.334;2022-08-03T05:57:12;10.20;89.70
55771;DHT22;41687;-33.234;-60.334;2022-08-03T05:59:40;10.20;90.10
55771;DHT22;41687;-33.234;-60.334;2022-08-03T06:02:07;10.20;90.40
55771;DHT22;41687;-33.234;-60.334;2022-08-03T06:04:36;10.30;90.70
55771;DHT22;41687;-33.234;-60.334;2022-08-03T06:07:03;10.30;91.00
55771;DHT22;41687;-33.234;-60.334;2022-08-03T06:09:31;10.40;91.00
55771;DHT22;41687;-33.234;-60.334;2022-08-03T06:11:59;10.50;91.00
55771;DHT22;41687;-33.234;-60.334;2022-08-03T06:14:27;10.50;91.00
55771;DHT22;41687;-33.234;-60.334;2022-08-03T06:16:54;10.50;90.60
55771;DHT22;41687;-33.234;-60.334;2022-08-03T06:19:22;10.40;91.10
55771;DHT22;41687;-33.234;-60.334;2022-08-03T06:21:50;10.50;90.80
55771;DHT22;41687;-33.234;-60.334;2022-08-03T06:24:19;10.40;90.80
55771;DHT22;41687;-33.234;-60.334;2022-08-03T06:26:46;10.40;91.10
55771;DHT22;41687;-33.234;-60.334;2022-08-03T06:29:13;10.40;91.00
55771;DHT22;41687;-33.234;-60.334;2022-08-03T06:31:41;10.40;91.10
55771;DHT22;41687;-33.234;-60.334;2022-08-03T06:34:09;10.40;91.10
55771;DHT22;41687;-33.234;-60.334;2022-08-03T06:36:37;10.40;91.10
55771;DHT22;41687;-33.234;-60.334;2022-08-03T06:39:05;10.40;91.00
55771;DHT22;41687;-33.234;-60.334;2022-08-03T06:41:33;10.30;91.10
55771;DHT22;41687;-33.234;-60.334;2022-08-03T06:44:03;10.20;91.20
55771;DHT22;41687;-33.234;-60.334;2022-08-03T06:46:30;10.20;91.40
55771;DHT22;41687;-33.234;-60.334;2022-08-03T06:48:58;10.20;91.40
55771;DHT22;41687;-33.234;-60.334;2022-08-03T06:51:26;10.20;91.70
55771;DHT22;41687;-33.234;-60.334;2022-08-03T06:53:54;10.10;91.80
55771;DHT22;41687;-33.234;-60.334;2022-08-03T06:56:21;10.10;92.00
55771;DHT22;41687;-33.234;-60.334;2022-08-03T06:58:49;10.10;91.90
55771;DHT22;41687;-33.234;-60.334;2022-08-03T07:01:17;10.00;92.20
55771;DHT22;41687;-33.234;-60.334;2022-08-03T07:03:45;10.10;92.20
55771;DHT22;41687;-33.234;-60.334;2022-08-03T07:06:14;10.10;91.80
55771;DHT22;41687;-33.234;-60.334;2022-08-03T07:08:41;10.10;91.80
55771;DHT22;41687;-33.234;-60.334;2022-08-03T07:11:09;10.10;91.60
55771;DHT22;41687;-33.234;-60.334;2022-08-03T07:13:37;10.10;91.70
55771;DHT22;41687;-33.234;-60.334;2022-08-03T07:16:07;10.00;91.60
55771;DHT22;41687;-33.234;-60.334;2022-08-03T07:18:38;10.00;92.20
55771;DHT22;41687;-33.234;-60.334;2022-08-03T07:21:06;10.00;92.00
55771;DHT22;41687;-33.234;-60.334;2022-08-03T07:23:36;10.00;92.40
55771;DHT22;41687;-33.234;-60.334;2022-08-03T07:26:04;10.00;92.50
55771;DHT22;41687;-33.234;-60.334;2022-08-03T07:28:32;10.00;92.60
55771;DHT22;41687;-33.234;-60.334;2022-08-03T07:31:00;10.00;92.20
55771;DHT22;41687;-33.234;-60.334;2022-08-03T07:33:27;10.10;92.50
55771;DHT22;41687;-33.234;-60.334;2022-08-03T07:35:55;10.20;92.10
55771;DHT22;41687;-33.234;-60.334;2022-08-03T07:38:23;10.10;92.40
55771;DHT22;41687;-33.234;-60.334;2022-08-03T07:40:52;10.10;92.40
55771;DHT22;41687;-33.234;-60.334;2022-08-03T07:43:20;10.10;92.60
55771;DHT22;41687;-33.234;-60.334;2022-08-03T07:45:47;10.10;92.60
55771;DHT22;41687;-33.234;-60.334;2022-08-03T07:48:15;10.10;92.60
55771;DHT22;41687;-33.234;-60.334;2022-08-03T07:50:43;10.10;92.60
55771;DHT22;41687;-33.234;-60.334;2022-08-03T07:53:11;10.10;92.50
55771;DHT22;41687;-33.234;-60.334;2022-08-03T07:55:38;10.10;92.40
55771;DHT22;41687;-33.234;-60.334;2022-08-03T07:58:09;10.10;92.40
55771;DHT22;41687;-33.234;-60.334;2022-08-03T08:00:45;10.10;92.20
55771;DHT22;41687;-33.234;-60.334;2022-08-03T08:03:12;10.10;92.10
55771;DHT22;41687;-33.234;-60.334;2022-08-03T08:05:41;10.00;92.20
55771;DHT22;41687;-33.234;-60.334;2022-08-03T08:08:08;10.00;92.50
55771;DHT22;41687;-33.234;-60.334;2022-08-03T08:10:36;10.00;92.20
55771;DHT22;41687;-33.234;-60.334;2022-08-03T08:13:04;10.00;92.30
55771;DHT22;41687;-33.234;-60.334;2022-08-03T08:15:32;10.00;92.20
55771;DHT22;41687;-33.234;-60.334;2022-08-03T08:18:00;10.00;92.40
55771;DHT22;41687;-33.234;-60.334;2022-08-03T08:20:34;10.00;92.10
55771;DHT22;41687;-33.234;-60.334;2022-08-03T08:23:07;10.00;92.60
55771;DHT22;41687;-33.234;-60.334;2022-08-03T08:25:35;10.00;92.10
55771;DHT22;41687;-33.234;-60.334;2022-08-03T08:28:03;9.90;92.20
55771;DHT22;41687;-33.234;-60.334;2022-08-03T08:30:32;9.90;92.10
55771;DHT22;41687;-33.234;-60.334;2022-08-03T08:33:00;10.00;92.00
55771;DHT22;41687;-33.234;-60.334;2022-08-03T08:35:28;10.00;92.00
55771;DHT22;41687;-33.234;-60.334;2022-08-03T08:37:55;10.00;92.10
55771;DHT22;41687;-33.234;-60.334;2022-08-03T08:40:27;9.90;92.40
55771;DHT22;41687;-33.234;-60.334;2022-08-03T08:42:55;10.00;92.20
55771;DHT22;41687;-33.234;-60.334;2022-08-03T08:45:23;9.90;92.30
55771;DHT22;41687;-33.234;-60.334;2022-08-03T08:47:51;9.90;92.50
55771;DHT22;41687;-33.234;-60.334;2022-08-03T08:50:20;10.00;92.00
55771;DHT22;41687;-33.234;-60.334;2022-08-03T08:52:49;9.90;92.40
55771;DHT22;41687;-33.234;-60.334;2022-08-03T08:55:21;9.90;92.40
55771;DHT22;41687;-33.234;-60.334;2022-08-03T08:57:57;9.80;92.90
55771;DHT22;41687;-33.234;-60.334;2022-08-03T09:00:25;9.90;92.50
55771;DHT22;41687;-33.234;-60.334;2022-08-03T09:02:53;9.90;92.70
55771;DHT22;41687;-33.234;-60.334;2022-08-03T09:05:21;9.80;92.80
55771;DHT22;41687;-33.234;-60.334;2022-08-03T09:07:49;9.80;92.80
55771;DHT22;41687;-33.234;-60.334;2022-08-03T09:10:17;9.80;92.80
55771;DHT22;41687;-33.234;-60.334;2022-08-03T09:12:50;9.80;92.80
55771;DHT22;41687;-33.234;-60.334;2022-08-03T09:15:20;9.80;92.70
55771;DHT22;41687;-33.234;-60.334;2022-08-03T09:17:50;9.70;92.60
55771;DHT22;41687;-33.234;-60.334;2022-08-03T09:20:20;9.70;92.70
55771;DHT22;41687;-33.234;-60.334;2022-08-03T09:25:28;9.70;92.90
55771;DHT22;41687;-33.234;-60.334;2022-08-03T09:28:10;9.70;92.60
55771;DHT22;41687;-33.234;-60.334;2022-08-03T09:30:41;9.70;92.30
55771;DHT22;41687;-33.234;-60.334;2022-08-03T09:33:11;9.60;92.40
55771;DHT22;41687;-33.234;-60.334;2022-08-03T09:35:42;9.60;92.20
55771;DHT22;41687;-33.234;-60.334;2022-08-03T09:40:40;9.50;92.30
55771;DHT22;41687;-33.234;-60.334;2022-08-03T09:43:08;9.40;92.50
55771;DHT22;41687;-33.234;-60.334;2022-08-03T09:45:38;9.40;92.30
55771;DHT22;41687;-33.234;-60.334;2022-08-03T09:48:21;9.40;92.20
55771;DHT22;41687;-33.234;-60.334;2022-08-03T09:50:57;9.40;92.20
55771;DHT22;41687;-33.234;-60.334;2022-08-03T09:53:26;9.30;92.50
55771;DHT22;41687;-33.234;-60.334;2022-08-03T09:55:58;9.40;92.50
55771;DHT22;41687;-33.234;-60.334;2022-08-03T09:58:28;9.40;92.50
55771;DHT22;41687;-33.234;-60.334;2022-08-03T10:03:36;9.30;92.30
55771;DHT22;41687;-33.234;-60.334;2022-08-03T10:06:19;9.30;92.50
55771;DHT22;41687;-33.234;-60.334;2022-08-03T10:11:37;9.30;92.60
55771;DHT22;41687;-33.234;-60.334;2022-08-03T10:14:06;9.20;92.70
55771;DHT22;41687;-33.234;-60.334;2022-08-03T10:16:38;9.30;92.60
55771;DHT22;41687;-33.234;-60.334;2022-08-03T10:19:07;9.20;92.80
55771;DHT22;41687;-33.234;-60.334;2022-08-03T10:21:52;9.30;92.80
55771;DHT22;41687;-33.234;-60.334;2022-08-03T10:24:25;9.40;92.70
55771;DHT22;41687;-33.234;-60.334;2022-08-03T10:27:15;9.40;92.70
55771;DHT22;41687;-33.234;-60.334;2022-08-03T10:29:49;9.50;92.50
55771;DHT22;41687;-33.234;-60.334;2022-08-03T10:32:29;9.50;92.50
55771;DHT22;41687;-33.234;-60.334;2022-08-03T10:35:14;9.50;92.50
55771;DHT22;41687;-33.234;-60.334;2022-08-03T10:37:58;9.60;92.90
55771;DHT22;41687;-33.234;-60.334;2022-08-03T10:40:31;9.60;92.70
55771;DHT22;41687;-33.234;-60.334;2022-08-03T10:43:06;9.50;92.60
55771;DHT22;41687;-33.234;-60.334;2022-08-03T10:45:40;9.50;92.50
55771;DHT22;41687;-33.234;-60.334;2022-08-03T10:48:10;9.40;92.60
55771;DHT22;41687;-33.234;-60.334;2022-08-03T10:50:38;9.50;92.60
55771;DHT22;41687;-33.234;-60.334;2022-08-03T10:53:09;9.40;92.70
55771;DHT22;41687;-33.234;-60.334;2022-08-03T10:55:42;9.40;92.90
55771;DHT22;41687;-33.234;-60.334;2022-08-03T11:01:08;9.30;92.90
55771;DHT22;41687;-33.234;-60.334;2022-08-03T11:06:36;9.50;93.00
55771;DHT22;41687;-33.234;-60.334;2022-08-03T11:11:39;9.50;92.90
55771;DHT22;41687;-33.234;-60.334;2022-08-03T11:14:15;9.40;92.90
55771;DHT22;41687;-33.234;-60.334;2022-08-03T11:16:50;9.40;93.00
55771;DHT22;41687;-33.234;-60.334;2022-08-03T11:19:46;9.40;93.20
55771;DHT22;41687;-33.234;-60.334;2022-08-03T11:22:16;9.30;93.40
55771;DHT22;41687;-33.234;-60.334;2022-08-03T11:27:22;9.30;93.20
55771;DHT22;41687;-33.234;-60.334;2022-08-03T11:29:54;9.40;93.10
55771;DHT22;41687;-33.234;-60.334;2022-08-03T11:35:25;9.30;93.20
55771;DHT22;41687;-33.234;-60.334;2022-08-03T11:46:05;9.30;93.20
55771;DHT22;41687;-33.234;-60.334;2022-08-03T11:51:05;9.40;92.90
55771;DHT22;41687;-33.234;-60.334;2022-08-03T11:53:34;9.40;93.20
55771;DHT22;41687;-33.234;-60.334;2022-08-03T11:56:02;9.40;93.00
55771;DHT22;41687;-33.234;-60.334;2022-08-03T11:58:30;9.40;93.10
55771;DHT22;41687;-33.234;-60.334;2022-08-03T12:01:07;9.30;93.10
55771;DHT22;41687;-33.234;-60.334;2022-08-03T12:03:37;9.40;93.40
55771;DHT22;41687;-33.234;-60.334;2022-08-03T12:06:12;9.40;93.50
55771;DHT22;41687;-33.234;-60.334;2022-08-03T12:08:41;9.50;93.10
55771;DHT22;41687;-33.234;-60.334;2022-08-03T12:11:12;9.60;93.40
55771;DHT22;41687;-33.234;-60.334;2022-08-03T12:13:45;9.50;93.30
55771;DHT22;41687;-33.234;-60.334;2022-08-03T12:16:19;9.60;93.10
55771;DHT22;41687;-33.234;-60.334;2022-08-03T12:19:05;9.60;93.50
55771;DHT22;41687;-33.234;-60.334;2022-08-03T12:21:34;9.60;93.60
55771;DHT22;41687;-33.234;-60.334;2022-08-03T12:24:04;9.60;93.40
55771;DHT22;41687;-33.234;-60.334;2022-08-03T12:26:46;9.70;93.00
55771;DHT22;41687;-33.234;-60.334;2022-08-03T12:29:21;9.80;93.50
55771;DHT22;41687;-33.234;-60.334;2022-08-03T12:31:52;9.90;93.70
55771;DHT22;41687;-33.234;-60.334;2022-08-03T12:34:19;10.10;93.10
55771;DHT22;41687;-33.234;-60.334;2022-08-03T12:36:54;10.20;92.70
55771;DHT22;41687;-33.234;-60.334;2022-08-03T12:39:25;10.30;92.90
55771;DHT22;41687;-33.234;-60.334;2022-08-03T12:41:55;10.30;92.90
55771;DHT22;41687;-33.234;-60.334;2022-08-03T12:44:48;10.40;93.10
55771;DHT22;41687;-33.234;-60.334;2022-08-03T12:47:17;10.40;93.40
55771;DHT22;41687;-33.234;-60.334;2022-08-03T12:52:14;10.40;93.20
55771;DHT22;41687;-33.234;-60.334;2022-08-03T12:54:42;10.40;93.70
55771;DHT22;41687;-33.234;-60.334;2022-08-03T12:57:20;10.50;93.70
55771;DHT22;41687;-33.234;-60.334;2022-08-03T12:59:48;10.60;93.50
55771;DHT22;41687;-33.234;-60.334;2022-08-03T13:02:18;10.70;93.50
55771;DHT22;41687;-33.234;-60.334;2022-08-03T13:04:48;10.70;93.30
55771;DHT22;41687;-33.234;-60.334;2022-08-03T13:07:17;10.70;93.40
55771;DHT22;41687;-33.234;-60.334;2022-08-03T13:12:25;10.70;93.40
55771;DHT22;41687;-33.234;-60.334;2022-08-03T13:14:57;10.60;93.70
55771;DHT22;41687;-33.234;-60.334;2022-08-03T13:17:26;10.60;93.70
55771;DHT22;41687;-33.234;-60.334;2022-08-03T13:19:54;10.70;93.30
55771;DHT22;41687;-33.234;-60.334;2022-08-03T13:22:26;10.70;93.40
55771;DHT22;41687;-33.234;-60.334;2022-08-03T13:24:57;10.90;93.20
55771;DHT22;41687;-33.234;-60.334;2022-08-03T13:27:28;11.10;93.40
55771;DHT22;41687;-33.234;-60.334;2022-08-03T13:29:56;11.30;93.10
55771;DHT22;41687;-33.234;-60.334;2022-08-03T13:32:24;11.40;92.50
55771;DHT22;41687;-33.234;-60.334;2022-08-03T13:34:51;11.60;92.30
55771;DHT22;41687;-33.234;-60.334;2022-08-03T13:37:19;11.90;92.00
55771;DHT22;41687;-33.234;-60.334;2022-08-03T13:39:47;12.10;91.40
55771;DHT22;41687;-33.234;-60.334;2022-08-03T13:42:15;12.30;90.90
55771;DHT22;41687;-33.234;-60.334;2022-08-03T13:44:42;12.40;90.70
55771;DHT22;41687;-33.234;-60.334;2022-08-03T13:47:10;12.30;90.20
55771;DHT22;41687;-33.234;-60.334;2022-08-03T13:49:38;12.40;90.20
55771;DHT22;41687;-33.234;-60.334;2022-08-03T13:52:07;12.50;90.10
55771;DHT22;41687;-33.234;-60.334;2022-08-03T13:54:34;12.50;90.00
55771;DHT22;41687;-33.234;-60.334;2022-08-03T13:57:02;12.80;89.40
55771;DHT22;41687;-33.234;-60.334;2022-08-03T13:59:30;12.80;89.00
55771;DHT22;41687;-33.234;-60.334;2022-08-03T14:01:58;13.10;87.90
55771;DHT22;41687;-33.234;-60.334;2022-08-03T14:04:26;13.10;87.90
55771;DHT22;41687;-33.234;-60.334;2022-08-03T14:06:53;13.20;87.20
55771;DHT22;41687;-33.234;-60.334;2022-08-03T14:09:21;13.40;86.90
55771;DHT22;41687;-33.234;-60.334;2022-08-03T14:11:49;13.60;87.20
55771;DHT22;41687;-33.234;-60.334;2022-08-03T14:14:17;13.70;86.60
55771;DHT22;41687;-33.234;-60.334;2022-08-03T14:16:45;13.60;86.30
55771;DHT22;41687;-33.234;-60.334;2022-08-03T14:19:12;13.50;86.50
55771;DHT22;41687;-33.234;-60.334;2022-08-03T14:21:42;13.50;86.50
55771;DHT22;41687;-33.234;-60.334;2022-08-03T14:24:09;13.50;86.70
55771;DHT22;41687;-33.234;-60.334;2022-08-03T14:26:37;13.40;86.90
55771;DHT22;41687;-33.234;-60.334;2022-08-03T14:29:05;13.50;86.30
55771;DHT22;41687;-33.234;-60.334;2022-08-03T14:31:33;13.50;85.60
55771;DHT22;41687;-33.234;-60.334;2022-08-03T14:34:01;13.50;85.90
55771;DHT22;41687;-33.234;-60.334;2022-08-03T14:36:28;13.30;86.70
55771;DHT22;41687;-33.234;-60.334;2022-08-03T14:38:56;13.40;86.50
55771;DHT22;41687;-33.234;-60.334;2022-08-03T14:41:24;13.40;86.70
55771;DHT22;41687;-33.234;-60.334;2022-08-03T14:43:52;13.40;86.30
55771;DHT22;41687;-33.234;-60.334;2022-08-03T14:46:22;13.40;86.70
55771;DHT22;41687;-33.234;-60.334;2022-08-03T14:48:49;13.40;86.40
55771;DHT22;41687;-33.234;-60.334;2022-08-03T14:51:17;13.20;87.10
55771;DHT22;41687;-33.234;-60.334;2022-08-03T14:53:45;13.20;87.20
55771;DHT22;41687;-33.234;-60.334;2022-08-03T14:56:13;13.20;87.40
55771;DHT22;41687;-33.234;-60.334;2022-08-03T14:58:41;13.20;86.90
55771;DHT22;41687;-33.234;-60.334;2022-08-03T15:01:09;13.20;87.20
55771;DHT22;41687;-33.234;-60.334;2022-08-03T15:03:36;13.20;86.80
55771;DHT22;41687;-33.234;-60.334;2022-08-03T15:06:04;13.20;86.80
55771;DHT22;41687;-33.234;-60.334;2022-08-03T15:08:32;13.20;86.80
55771;DHT22;41687;-33.234;-60.334;2022-08-03T15:11:00;13.20;86.40
55771;DHT22;41687;-33.234;-60.334;2022-08-03T15:13:27;13.20;86.30
55771;DHT22;41687;-33.234;-60.334;2022-08-03T15:15:56;13.20;86.00
55771;DHT22;41687;-33.234;-60.334;2022-08-03T15:18:23;13.20;85.90
55771;DHT22;41687;-33.234;-60.334;2022-08-03T15:20:51;13.20;86.30
55771;DHT22;41687;-33.234;-60.334;2022-08-03T15:23:19;13.10;86.20
55771;DHT22;41687;-33.234;-60.334;2022-08-03T15:25:47;13.00;86.40
55771;DHT22;41687;-33.234;-60.334;2022-08-03T15:28:15;13.10;86.20
55771;DHT22;41687;-33.234;-60.334;2022-08-03T15:30:43;13.00;86.30
55771;DHT22;41687;-33.234;-60.334;2022-08-03T15:33:10;13.00;86.30
55771;DHT22;41687;-33.234;-60.334;2022-08-03T15:35:38;12.90;86.10
55771;DHT22;41687;-33.234;-60.334;2022-08-03T15:38:07;12.70;85.80
55771;DHT22;41687;-33.234;-60.334;2022-08-03T15:40:35;12.60;86.60
55771;DHT22;41687;-33.234;-60.334;2022-08-03T15:43:02;12.50;86.70
55771;DHT22;41687;-33.234;-60.334;2022-08-03T15:45:31;12.50;86.20
55771;DHT22;41687;-33.234;-60.334;2022-08-03T15:47:58;12.40;86.50
55771;DHT22;41687;-33.234;-60.334;2022-08-03T15:50:26;12.30;86.20
55771;DHT22;41687;-33.234;-60.334;2022-08-03T15:52:55;12.40;86.20
55771;DHT22;41687;-33.234;-60.334;2022-08-03T15:55:23;12.40;85.70
55771;DHT22;41687;-33.234;-60.334;2022-08-03T15:57:51;12.30;85.40
55771;DHT22;41687;-33.234;-60.334;2022-08-03T16:00:19;12.30;85.60
55771;DHT22;41687;-33.234;-60.334;2022-08-03T16:02:46;12.30;85.50
55771;DHT22;41687;-33.234;-60.334;2022-08-03T16:05:14;12.30;85.50